Check out our new BloomSky Weather System.

Active alerts

Galveston, TX
  Details for Galveston, TX Coastal Flood Advisory  +3 additional alerts
Houston, TX
  Details for Houston, TX Flash Flood Watch
Fort Bend, TX
  Details for Fort Bend, TX Flash Flood Watch


Thunder radar  blitzortung!


Rain radar more information rain snow radar


Visit our other weather sites:

Template documentation
and downloads

And another site



Weather Underground History page Text

Daily Summary for March 30, 2017 Units:  English    Metric   Both
« Previous Day
Next Day »
Daily Weekly Monthly Yearly Custom
  High: Low: Average:
Temperature: TemperatureF °F 59.4 °F 66.6 °F
Dew Point: DewpointF °F 49.3 °F 54 °F
Humidity: Humidity % 39 % 66 %
Wind Speed: WindSpeedMPH mph 0.0 mph 2.3 mph
Wind Gust: WindSpeedGustMPH mph - -
Wind:- - West
Pressure: PressureIn in 29.76 in -
Precipitation: 0.00 in    
Historical Graphs
 
 
Tabular Data for March 30, 2017
Time Temperature Dew Point Pressure Wind Wind Speed Wind Gust Humidity Rainfall Rate (Hourly)
TemperatureF °F DewpointF °F PressureIn in Calm     Humidity % HourlyPrecipIn in
00:01 66.6 °F 65.7 °F 29.80 in Calm     97 % 0.00 in
00:06 66.0 °F 65.1 °F 29.80 in Calm     97 % 0.00 in
00:11 66.2 °F 65.7 °F 29.79 in Calm     98 % 0.00 in
00:16 66.2 °F 65.7 °F 29.80 in Calm     98 % 0.00 in
00:21 66.0 °F 65.5 °F 29.80 in Calm     98 % 0.00 in
00:26 65.8 °F 65.3 °F 29.80 in Calm     98 % 0.00 in
00:31 65.7 °F 65.1 °F 29.80 in Calm     98 % 0.00 in
00:36 65.7 °F 65.1 °F 29.80 in Calm     98 % 0.00 in
00:41 65.3 °F 64.8 °F 29.80 in Calm     98 % 0.00 in
00:46 65.3 °F 64.8 °F 29.80 in Calm     98 % 0.00 in
00:51 65.1 °F 64.6 °F 29.79 in Calm     98 % 0.00 in
00:56 65.1 °F 64.6 °F 29.79 in Calm     98 % 0.00 in
01:01 65.3 °F 64.8 °F 29.78 in Calm     98 % 0.00 in
01:06 65.3 °F 64.8 °F 29.79 in Calm     98 % 0.00 in
01:11 65.1 °F 64.6 °F 29.78 in Calm     98 % 0.00 in
01:16 64.9 °F 64.4 °F 29.78 in Calm     98 % 0.00 in
01:21 64.6 °F 64.0 °F 29.78 in Calm     98 % 0.00 in
01:22 64.6 °F 64.0 °F 29.78 in Calm     98 % 0.00 in
01:27 64.6 °F 64.2 °F 29.78 in Calm     99 % 0.00 in
01:32 64.6 °F 64.0 °F 29.77 in Calm     98 % 0.00 in
01:37 64.6 °F 64.0 °F 29.77 in Calm     98 % 0.00 in
01:42 64.6 °F 64.2 °F 29.77 in Calm     99 % 0.00 in
01:47 64.4 °F 63.9 °F 29.77 in Calm     98 % 0.00 in
01:52 64.0 °F 63.5 °F 29.78 in Calm     98 % 0.00 in
01:57 64.2 °F 63.9 °F 29.78 in Calm     99 % 0.00 in
02:02 64.2 °F 63.9 °F 29.78 in Calm     99 % 0.00 in
02:07 64.4 °F 64.0 °F 29.79 in Calm     99 % 0.00 in
02:13 64.6 °F 64.2 °F 29.79 in Calm     99 % 0.00 in
02:18 64.8 °F 64.4 °F 29.81 in West 2.0 mph 8.0 mph 99 % 0.00 in
02:23 63.9 °F 63.0 °F 29.81 in NNE 5.0 mph 8.0 mph 97 % 0.00 in
02:28 63.0 °F 61.2 °F 29.81 in North 3.0 mph 8.0 mph 94 % 0.00 in
02:33 63.1 °F 59.9 °F 29.81 in North 6.0 mph 9.0 mph 89 % 0.00 in
02:38 63.7 °F 58.8 °F 29.83 in WNW 3.0 mph 9.0 mph 84 % 0.00 in
02:43 64.2 °F 58.3 °F 29.82 in NW 3.0 mph 10.0 mph 81 % 0.00 in
02:48 64.2 °F 57.9 °F 29.83 in NNW 2.0 mph 10.0 mph 80 % 0.00 in
02:53 64.2 °F 57.9 °F 29.82 in NNW 3.0 mph 10.0 mph 80 % 0.00 in
02:58 64.0 °F 57.7 °F 29.83 in NW 4.0 mph 8.0 mph 80 % 0.00 in
03:03 64.0 °F 57.7 °F 29.83 in NNW 1.0 mph 6.0 mph 80 % 0.00 in
03:08 63.9 °F 57.6 °F 29.83 in NNW 1.0 mph 6.0 mph 80 % 0.00 in
03:13 63.7 °F 57.4 °F 29.83 in NNW 6.0 mph 6.0 mph 80 % 0.00 in
03:18 63.7 °F 57.4 °F 29.82 in Calm   6.0 mph 80 % 0.00 in
03:23 63.5 °F 57.2 °F 29.83 in Calm   7.0 mph 80 % 0.00 in
03:28 63.5 °F 57.2 °F 29.84 in Calm   7.0 mph 80 % 0.00 in
03:33 63.3 °F 57.0 °F 29.83 in NW 3.0 mph 7.0 mph 80 % 0.00 in
03:38 63.3 °F 57.0 °F 29.83 in NNW 2.0 mph 5.0 mph 80 % 0.00 in
03:44 63.3 °F 57.0 °F 29.83 in NW 4.0 mph 10.0 mph 80 % 0.00 in
03:49 63.3 °F 57.0 °F 29.83 in NW 2.0 mph 10.0 mph 80 % 0.00 in
03:54 63.3 °F 57.0 °F 29.83 in WNW 2.0 mph 10.0 mph 80 % 0.00 in
03:59 63.3 °F 57.0 °F 29.83 in WNW 2.0 mph 9.0 mph 80 % 0.00 in
04:04 63.3 °F 57.0 °F 29.83 in NW 5.0 mph 9.0 mph 80 % 0.00 in
04:09 63.3 °F 57.0 °F 29.83 in NNW 11.0 mph 11.0 mph 80 % 0.00 in
04:14 63.3 °F 57.0 °F 29.84 in Calm   11.0 mph 80 % 0.00 in
04:19 63.3 °F 57.4 °F 29.84 in WNW 2.0 mph 12.0 mph 81 % 0.00 in
04:24 63.1 °F 57.2 °F 29.84 in NW 3.0 mph 12.0 mph 81 % 0.00 in
04:29 63.1 °F 57.2 °F 29.83 in WNW 3.0 mph 12.0 mph 81 % 0.00 in
04:34 63.1 °F 57.2 °F 29.83 in NW 7.0 mph 10.0 mph 81 % 0.00 in
04:39 63.1 °F 57.2 °F 29.83 in WNW 3.0 mph 10.0 mph 81 % 0.00 in
04:44 63.1 °F 57.2 °F 29.83 in NNW 4.0 mph 8.0 mph 81 % 0.00 in
04:49 63.0 °F 57.0 °F 29.84 in North 7.0 mph 8.0 mph 81 % 0.00 in
04:54 63.0 °F 57.0 °F 29.85 in NW 3.0 mph 11.0 mph 81 % 0.00 in
04:59 63.0 °F 57.0 °F 29.84 in NW 5.0 mph 11.0 mph 81 % 0.00 in
05:04 63.0 °F 56.7 °F 29.84 in NW 10.0 mph 11.0 mph 80 % 0.00 in
05:09 62.8 °F 56.8 °F 29.85 in NW 7.0 mph 14.0 mph 81 % 0.00 in
05:14 62.8 °F 56.8 °F 29.85 in NW 2.0 mph 14.0 mph 81 % 0.00 in
05:19 62.6 °F 56.7 °F 29.85 in NW 2.0 mph 14.0 mph 81 % 0.00 in
05:24 62.4 °F 56.5 °F 29.85 in NNW 4.0 mph 12.0 mph 81 % 0.00 in
05:29 62.4 °F 56.5 °F 29.85 in West 13.0 mph 13.0 mph 81 % 0.00 in
05:34 62.2 °F 56.3 °F 29.84 in NW 3.0 mph 13.0 mph 81 % 0.00 in
05:39 62.1 °F 56.1 °F 29.85 in WNW 2.0 mph 13.0 mph 81 % 0.00 in
05:44 62.1 °F 56.1 °F 29.85 in NW 4.0 mph 13.0 mph 81 % 0.00 in
05:49 61.9 °F 55.9 °F 29.84 in NW 5.0 mph 10.0 mph 81 % 0.00 in
05:54 61.9 °F 55.9 °F 29.83 in NW 6.0 mph 9.0 mph 81 % 0.00 in
05:59 61.7 °F 55.8 °F 29.84 in NW 3.0 mph 11.0 mph 81 % 0.00 in
06:04 61.5 °F 55.9 °F 29.84 in NW 3.0 mph 12.0 mph 82 % 0.00 in
06:09 61.5 °F 55.9 °F 29.84 in NNE 3.0 mph 12.0 mph 82 % 0.00 in
06:14 61.3 °F 55.8 °F 29.84 in NW 5.0 mph 12.0 mph 82 % 0.00 in
06:19 61.3 °F 55.4 °F 29.84 in NW 6.0 mph 9.0 mph 81 % 0.00 in
06:24 61.2 °F 55.2 °F 29.84 in NW 4.0 mph 16.0 mph 81 % 0.00 in
06:29 61.2 °F 55.2 °F 29.83 in NW 5.0 mph 16.0 mph 81 % 0.00 in
06:34 61.0 °F 55.0 °F 29.83 in West 6.0 mph 16.0 mph 81 % 0.00 in
06:39 61.0 °F 55.4 °F 29.83 in NNW 3.0 mph 11.0 mph 82 % 0.00 in
06:44 60.6 °F 55.0 °F 29.83 in NW 2.0 mph 11.0 mph 82 % 0.00 in
06:49 60.6 °F 55.0 °F 29.83 in NW 4.0 mph 11.0 mph 82 % 0.00 in
06:54 60.4 °F 55.2 °F 29.83 in NNW 4.0 mph 11.0 mph 83 % 0.00 in
06:59 60.3 °F 55.0 °F 29.82 in NNW 9.0 mph 11.0 mph 83 % 0.00 in
07:04 60.1 °F 54.9 °F 29.82 in WNW 4.0 mph 11.0 mph 83 % 0.00 in
07:09 59.9 °F 54.3 °F 29.83 in WNW 4.0 mph 13.0 mph 82 % 0.00 in
07:14 59.7 °F 54.0 °F 29.82 in WNW 5.0 mph 13.0 mph 81 % 0.00 in
07:19 59.7 °F 53.2 °F 29.83 in NNW 5.0 mph 14.0 mph 79 % 0.00 in
07:24 59.7 °F 53.2 °F 29.83 in NW 6.0 mph 14.0 mph 79 % 0.00 in
07:29 59.7 °F 53.2 °F 29.83 in WNW 4.0 mph 14.0 mph 79 % 0.00 in
07:34 59.5 °F 53.1 °F 29.83 in WNW 4.0 mph 13.0 mph 79 % 0.00 in
07:39 59.5 °F 52.7 °F 29.83 in WNW 7.0 mph 12.0 mph 78 % 0.00 in
07:44 59.5 °F 52.7 °F 29.83 in SW 2.0 mph 16.0 mph 78 % 0.00 in
07:49 59.5 °F 52.7 °F 29.83 in WNW 5.0 mph 16.0 mph 78 % 0.00 in
07:54 59.5 °F 52.3 °F 29.84 in NNW 4.0 mph 16.0 mph 77 % 0.00 in
08:00 59.5 °F 52.3 °F 29.84 in North 3.0 mph 12.0 mph 77 % 0.00 in
08:05 59.4 °F 51.8 °F 29.84 in NNW 4.0 mph 12.0 mph 76 % 0.00 in
08:10 59.4 °F 52.2 °F 29.84 in NW 3.0 mph 12.0 mph 77 % 0.00 in
08:15 59.4 °F 51.8 °F 29.84 in NNW 5.0 mph 12.0 mph 76 % 0.00 in
08:20 59.4 °F 52.2 °F 29.85 in WNW 7.0 mph 12.0 mph 77 % 0.00 in
08:25 59.4 °F 51.8 °F 29.86 in NW 3.0 mph 12.0 mph 76 % 0.00 in
08:30 59.4 °F 51.8 °F 29.86 in NW 8.0 mph 12.0 mph 76 % 0.00 in
08:35 59.4 °F 51.8 °F 29.86 in WNW 6.0 mph 11.0 mph 76 % 0.00 in
08:40 59.4 °F 51.8 °F 29.86 in NNW 8.0 mph 11.0 mph 76 % 0.00 in
08:45 59.4 °F 51.8 °F 29.86 in NW 5.0 mph 11.0 mph 76 % 0.00 in
08:50 59.5 °F 52.0 °F 29.86 in NW 7.0 mph 11.0 mph 76 % 0.00 in
08:55 59.4 °F 51.8 °F 29.86 in NW 7.0 mph 14.0 mph 76 % 0.00 in
09:00 59.4 °F 51.8 °F 29.87 in NNW 3.0 mph 14.0 mph 76 % 0.00 in
09:05 59.4 °F 51.8 °F 29.88 in WNW 3.0 mph 14.0 mph 76 % 0.00 in
09:10 59.5 °F 52.0 °F 29.89 in NNW 2.0 mph 11.0 mph 76 % 0.00 in
09:15 59.9 °F 52.3 °F 29.90 in North 1.0 mph 9.0 mph 76 % 0.00 in
09:20 60.3 °F 52.7 °F 29.90 in NW 2.0 mph 9.0 mph 76 % 0.00 in
09:25 60.6 °F 52.3 °F 29.90 in NW 1.0 mph 7.0 mph 74 % 0.00 in
09:30 61.0 °F 52.3 °F 29.90 in NNW 3.0 mph 7.0 mph 73 % 0.00 in
09:35 61.0 °F 52.0 °F 29.90 in WNW 3.0 mph 7.0 mph 72 % 0.00 in
09:40 61.5 °F 52.3 °F 29.91 in Calm   7.0 mph 72 % 0.00 in
09:45 61.9 °F 52.3 °F 29.90 in ENE 1.0 mph 5.0 mph 71 % 0.00 in
09:50 62.1 °F 52.5 °F 29.90 in NNW 1.0 mph 4.0 mph 71 % 0.00 in
09:55 62.4 °F 52.5 °F 29.91 in Calm   4.0 mph 70 % 0.00 in
10:00 63.0 °F 52.7 °F 29.91 in Calm   4.0 mph 69 % 0.00 in
10:05 63.7 °F 53.2 °F 29.90 in West 3.0 mph 6.0 mph 69 % 0.00 in
10:10 63.9 °F 52.3 °F 29.90 in NW 2.0 mph 9.0 mph 66 % 0.00 in
10:15 63.9 °F 51.4 °F 29.90 in NW 5.0 mph 9.0 mph 64 % 0.00 in
10:20 63.9 °F 51.8 °F 29.90 in North 5.0 mph 9.0 mph 65 % 0.00 in
10:22 63.7 °F 52.2 °F 29.90 in NNE 5.0 mph 9.0 mph 66 % 0.00 in
10:27 64.0 °F 52.5 °F 29.89 in West 2.0 mph 8.0 mph 66 % 0.00 in
10:32 64.2 °F 52.2 °F 29.89 in NNE 6.0 mph 9.0 mph 65 % 0.00 in
10:37 64.8 °F 51.8 °F 29.89 in NW 7.0 mph 11.0 mph 63 % 0.00 in
10:42 64.9 °F 51.6 °F 29.89 in NW 4.0 mph 11.0 mph 62 % 0.00 in
10:47 65.3 °F 51.1 °F 29.90 in NW 5.0 mph 11.0 mph 60 % 0.00 in
10:52 65.7 °F 51.8 °F 29.89 in NW 5.0 mph 13.0 mph 61 % 0.00 in
10:57 65.8 °F 51.6 °F 29.89 in NNW 6.0 mph 13.0 mph 60 % 0.00 in
11:02 65.8 °F 50.7 °F 29.89 in WNW 7.0 mph 13.0 mph 58 % 0.00 in
11:07 66.4 °F 50.7 °F 29.89 in NW 5.0 mph 13.0 mph 57 % 0.00 in
11:12 66.6 °F 51.8 °F 29.89 in NW 5.0 mph 13.0 mph 59 % 0.00 in
11:17 67.1 °F 51.8 °F 29.88 in NW 5.0 mph 13.0 mph 58 % 0.00 in
11:22 67.3 °F 51.4 °F 29.88 in NNW 7.0 mph 10.0 mph 57 % 0.00 in
11:27 67.6 °F 51.4 °F 29.88 in North 3.0 mph 10.0 mph 56 % 0.00 in
11:32 67.8 °F 51.6 °F 29.88 in WNW 4.0 mph 10.0 mph 56 % 0.00 in
11:37 68.2 °F 52.3 °F 29.88 in NW 5.0 mph 10.0 mph 57 % 0.00 in
11:42 68.5 °F 51.3 °F 29.88 in NNE 3.0 mph 9.0 mph 54 % 0.00 in
11:47 68.5 °F 51.8 °F 29.88 in NW 2.0 mph 12.0 mph 55 % 0.00 in
11:52 68.7 °F 50.4 °F 29.88 in NNE 2.0 mph 12.0 mph 52 % 0.00 in
11:57 68.7 °F 49.8 °F 29.88 in Calm   12.0 mph 51 % 0.00 in
12:02 69.1 °F 52.2 °F 29.88 in Calm   9.0 mph 55 % 0.00 in
12:07 69.4 °F 52.2 °F 29.88 in NNW 3.0 mph 9.0 mph 54 % 0.00 in
12:12 70.0 °F 53.6 °F 29.88 in Calm   9.0 mph 56 % 0.00 in
12:17 70.3 °F 51.8 °F 29.88 in NNW 1.0 mph 9.0 mph 52 % 0.00 in
12:22 70.3 °F 50.9 °F 29.88 in NNW 9.0 mph 9.0 mph 50 % 0.00 in
12:27 70.0 °F 50.0 °F 29.88 in WNW 2.0 mph 11.0 mph 49 % 0.00 in
12:32 70.0 °F 49.5 °F 29.87 in NNW 3.0 mph 11.0 mph 48 % 0.00 in
12:37 69.8 °F 49.8 °F 29.87 in NNW 8.0 mph 11.0 mph 49 % 0.00 in
12:42 69.6 °F 49.6 °F 29.87 in NW 2.0 mph 10.0 mph 49 % 0.00 in
12:47 69.6 °F 50.7 °F 29.86 in NW 4.0 mph 10.0 mph 51 % 0.00 in
12:52 70.0 °F 51.1 °F 29.86 in NNW 2.0 mph 10.0 mph 51 % 0.00 in
12:57 70.3 °F 49.6 °F 29.86 in NW 1.0 mph 7.0 mph 48 % 0.00 in
13:03 70.2 °F 50.2 °F 29.86 in NW 4.0 mph 8.0 mph 49 % 0.00 in
13:08 70.5 °F 49.8 °F 29.86 in NNW 1.0 mph 8.0 mph 48 % 0.00 in
13:13 70.9 °F 50.2 °F 29.86 in NNW 3.0 mph 8.0 mph 48 % 0.00 in
13:18 71.4 °F 54.0 °F 29.86 in SW 2.0 mph 8.0 mph 54 % 0.00 in
13:23 71.8 °F 52.2 °F 29.86 in SSE 2.0 mph 8.0 mph 50 % 0.00 in
13:28 72.0 °F 52.3 °F 29.85 in NNW 7.0 mph 8.0 mph 50 % 0.00 in
13:33 72.1 °F 52.0 °F 29.85 in NNW 6.0 mph 7.0 mph 49 % 0.00 in
13:38 71.6 °F 52.0 °F 29.85 in NW 3.0 mph 9.0 mph 50 % 0.00 in
13:43 71.8 °F 52.2 °F 29.84 in NNW 4.0 mph 11.0 mph 50 % 0.00 in
13:48 72.1 °F 53.6 °F 29.84 in WSW 1.0 mph 11.0 mph 52 % 0.00 in
13:53 72.3 °F 50.9 °F 29.84 in Calm   11.0 mph 47 % 0.00 in
13:58 72.3 °F 53.8 °F 29.84 in NW 4.0 mph 8.0 mph 52 % 0.00 in
14:03 73.0 °F 53.8 °F 29.83 in NW 2.0 mph 6.0 mph 51 % 0.00 in
14:08 73.4 °F 52.5 °F 29.83 in North 3.0 mph 9.0 mph 48 % 0.00 in
14:13 73.6 °F 52.2 °F 29.83 in SW 2.0 mph 11.0 mph 47 % 0.00 in
14:18 73.0 °F 50.4 °F 29.83 in NW 7.0 mph 11.0 mph 45 % 0.00 in
14:23 73.0 °F 51.6 °F 29.83 in NNW 2.0 mph 13.0 mph 47 % 0.00 in
14:28 73.0 °F 52.7 °F 29.83 in NW 2.0 mph 13.0 mph 49 % 0.00 in
14:33 73.8 °F 51.6 °F 29.83 in SW 1.0 mph 13.0 mph 46 % 0.00 in
14:38 74.1 °F 53.2 °F 29.83 in WSW 2.0 mph 9.0 mph 48 % 0.00 in
14:43 73.9 °F 53.6 °F 29.82 in West 4.0 mph 10.0 mph 49 % 0.00 in
14:48 74.1 °F 52.5 °F 29.83 in Calm   10.0 mph 47 % 0.00 in
14:53 74.7 °F 52.0 °F 29.82 in West 2.0 mph 10.0 mph 45 % 0.00 in
14:58 74.1 °F 50.9 °F 29.82 in WNW 8.0 mph 10.0 mph 44 % 0.00 in
15:03 74.5 °F 51.8 °F 29.82 in WNW 2.0 mph 10.0 mph 45 % 0.00 in
15:08 74.5 °F 51.1 °F 29.81 in NW 6.0 mph 10.0 mph 44 % 0.00 in
15:13 74.5 °F 51.1 °F 29.81 in WNW 3.0 mph 12.0 mph 44 % 0.00 in
15:18 74.8 °F 52.7 °F 29.81 in WSW 2.0 mph 12.0 mph 46 % 0.00 in
15:19 75.0 °F 52.2 °F 29.81 in SW 3.0 mph 12.0 mph 45 % 0.00 in
15:24 75.6 °F 52.7 °F 29.81 in North 1.0 mph 12.0 mph 45 % 0.00 in
15:29 75.7 °F 52.3 °F 29.81 in NW 5.0 mph 10.0 mph 44 % 0.00 in
15:34 75.7 °F 53.4 °F 29.81 in NW 2.0 mph 9.0 mph 46 % 0.00 in
15:39 75.6 °F 50.9 °F 29.80 in NNW 1.0 mph 9.0 mph 42 % 0.00 in
15:44 75.6 °F 51.4 °F 29.80 in WNW 7.0 mph 8.0 mph 43 % 0.00 in
15:49 75.7 °F 52.3 °F 29.80 in WNW 6.0 mph 8.0 mph 44 % 0.00 in
15:54 76.3 °F 52.2 °F 29.80 in WNW 3.0 mph 8.0 mph 43 % 0.00 in
15:59 76.1 °F 49.3 °F 29.79 in NW 2.0 mph 8.0 mph 39 % 0.00 in
16:04 75.9 °F 50.5 °F 29.79 in NW 7.0 mph 8.0 mph 41 % 0.00 in
16:09 75.7 °F 50.4 °F 29.78 in NW 3.0 mph 8.0 mph 41 % 0.00 in
16:14 75.9 °F 53.1 °F 29.78 in WNW 2.0 mph 8.0 mph 45 % 0.00 in
16:19 76.3 °F 52.2 °F 29.78 in WNW 2.0 mph 8.0 mph 43 % 0.00 in
16:24 76.3 °F 52.2 °F 29.78 in NNW 1.0 mph 8.0 mph 43 % 0.00 in
16:29 76.6 °F 50.5 °F 29.78 in NW 2.0 mph 6.0 mph 40 % 0.00 in
16:34 76.6 °F 50.5 °F 29.78 in NW 2.0 mph 6.0 mph 40 % 0.00 in
16:39 76.5 °F 51.6 °F 29.78 in WNW 1.0 mph 6.0 mph 42 % 0.00 in
16:44 76.6 °F 49.8 °F 29.78 in NW 2.0 mph 8.0 mph 39 % 0.00 in
16:49 76.6 °F 50.5 °F 29.78 in NW 3.0 mph 8.0 mph 40 % 0.00 in
16:54 76.8 °F 50.7 °F 29.77 in NW 4.0 mph 8.0 mph 40 % 0.00 in
17:00 77.2 °F 50.4 °F 29.78 in West 1.0 mph 8.0 mph 39 % 0.00 in
17:05 77.4 °F 50.5 °F 29.78 in WSW 1.0 mph 8.0 mph 39 % 0.00 in
17:10 77.2 °F 50.4 °F 29.78 in NW 2.0 mph 6.0 mph 39 % 0.00 in
17:15 77.0 °F 50.9 °F 29.78 in NW 1.0 mph 7.0 mph 40 % 0.00 in
17:20 77.2 °F 51.6 °F 29.78 in West 2.0 mph 7.0 mph 41 % 0.00 in
17:25 77.5 °F 52.0 °F 29.78 in SSW 4.0 mph 7.0 mph 41 % 0.00 in
17:30 77.4 °F 50.5 °F 29.78 in NW 2.0 mph 6.0 mph 39 % 0.00 in
17:35 77.5 °F 50.5 °F 29.78 in West 3.0 mph 6.0 mph 39 % 0.00 in
17:40 77.5 °F 52.0 °F 29.78 in SW 2.0 mph 6.0 mph 41 % 0.00 in
17:45 77.4 °F 51.1 °F 29.78 in SW 1.0 mph 6.0 mph 40 % 0.00 in
17:50 77.4 °F 51.8 °F 29.78 in SSW 4.0 mph 7.0 mph 41 % 0.00 in
17:55 77.4 °F 51.8 °F 29.77 in SW 1.0 mph 7.0 mph 41 % 0.00 in
18:00 77.2 °F 51.6 °F 29.77 in WSW 1.0 mph 7.0 mph 41 % 0.00 in
18:05 77.2 °F 51.6 °F 29.77 in Calm   6.0 mph 41 % 0.00 in
18:10 77.4 °F 52.5 °F 29.77 in WSW 2.0 mph 6.0 mph 42 % 0.00 in
18:15 77.5 °F 52.7 °F 29.77 in Calm   6.0 mph 42 % 0.00 in
18:20 77.2 °F 51.6 °F 29.77 in Calm   5.0 mph 41 % 0.00 in
18:25 77.0 °F 52.2 °F 29.77 in Calm   5.0 mph 42 % 0.00 in
18:30 76.8 °F 51.3 °F 29.77 in SSW 1.0 mph 5.0 mph 41 % 0.00 in
18:35 76.6 °F 51.8 °F 29.77 in West 2.0 mph 4.0 mph 42 % 0.00 in
18:40 76.6 °F 51.8 °F 29.76 in Calm   4.0 mph 42 % 0.00 in
18:45 76.5 °F 51.1 °F 29.76 in Calm   4.0 mph 41 % 0.00 in
18:50 76.3 °F 50.9 °F 29.77 in Calm   4.0 mph 41 % 0.00 in
18:55 76.3 °F 50.9 °F 29.77 in Calm   6.0 mph 41 % 0.00 in
19:00 76.3 °F 50.9 °F 29.77 in Calm   6.0 mph 41 % 0.00 in
19:05 76.5 °F 51.1 °F 29.76 in Calm   6.0 mph 41 % 0.00 in
19:10 76.5 °F 50.4 °F 29.76 in West 1.0 mph 4.0 mph 40 % 0.00 in
19:15 76.3 °F 50.2 °F 29.76 in Calm   2.0 mph 40 % 0.00 in
19:20 75.7 °F 50.4 °F 29.77 in Calm   3.0 mph 41 % 0.00 in
19:25 75.2 °F 50.5 °F 29.77 in Calm   3.0 mph 42 % 0.00 in
19:30 74.5 °F 49.8 °F 29.77 in Calm   3.0 mph 42 % 0.00 in
19:35 73.4 °F 50.2 °F 29.77 in Calm   2.0 mph 44 % 0.00 in
19:40 72.3 °F 49.8 °F 29.77 in Calm   2.0 mph 45 % 0.00 in
19:45 71.4 °F 49.6 °F 29.77 in Calm   1.0 mph 46 % 0.00 in
19:51 70.7 °F 49.5 °F 29.77 in Calm   1.0 mph 47 % 0.00 in
19:56 69.8 °F 50.9 °F 29.78 in Calm   1.0 mph 51 % 0.00 in
20:01 69.1 °F 51.3 °F 29.77 in Calm   1.0 mph 53 % 0.00 in
20:06 68.4 °F 50.5 °F 29.77 in Calm   1.0 mph 53 % 0.00 in
20:11 67.6 °F 50.9 °F 29.78 in Calm   1.0 mph 55 % 0.00 in
20:16 67.5 °F 51.6 °F 29.78 in Calm   1.0 mph 57 % 0.00 in
20:21 67.1 °F 50.9 °F 29.78 in Calm   1.0 mph 56 % 0.00 in
20:26 66.7 °F 51.4 °F 29.78 in WSW 1.0 mph 1.0 mph 58 % 0.00 in
20:31 66.4 °F 51.6 °F 29.78 in Calm   1.0 mph 59 % 0.00 in
20:36 65.8 °F 52.0 °F 29.78 in Calm   1.0 mph 61 % 0.00 in
20:41 65.7 °F 51.8 °F 29.78 in Calm   1.0 mph 61 % 0.00 in
20:46 65.3 °F 51.4 °F 29.78 in Calm     61 % 0.00 in
20:51 64.9 °F 52.5 °F 29.78 in Calm     64 % 0.00 in
20:56 64.8 °F 52.3 °F 29.78 in Calm     64 % 0.00 in
21:01 64.2 °F 52.2 °F 29.78 in Calm     65 % 0.00 in
21:06 63.9 °F 52.7 °F 29.79 in Calm     67 % 0.00 in
21:11 63.7 °F 52.5 °F 29.79 in Calm     67 % 0.00 in
21:16 63.3 °F 52.2 °F 29.79 in Calm     67 % 0.00 in
21:21 63.0 °F 51.8 °F 29.79 in Calm     67 % 0.00 in
21:26 62.8 °F 51.6 °F 29.79 in Calm     67 % 0.00 in
21:31 62.2 °F 52.0 °F 29.80 in Calm     69 % 0.00 in
21:36 62.2 °F 53.1 °F 29.80 in Calm   1.0 mph 72 % 0.00 in
21:41 62.4 °F 53.2 °F 29.80 in Calm   1.0 mph 72 % 0.00 in
21:46 61.9 °F 52.3 °F 29.81 in Calm   1.0 mph 71 % 0.00 in
21:51 61.5 °F 53.2 °F 29.81 in Calm     74 % 0.00 in
21:56 61.5 °F 53.2 °F 29.81 in Calm     74 % 0.00 in
22:01 61.5 °F 53.6 °F 29.81 in Calm     75 % 0.00 in
22:05 61.5 °F 54.0 °F 29.81 in Calm     76 % 0.00 in
22:10 61.7 °F 54.1 °F 29.81 in Calm     76 % 0.00 in
22:15 61.5 °F 54.0 °F 29.81 in Calm     76 % 0.00 in
22:20 61.3 °F 54.1 °F 29.81 in Calm     77 % 0.00 in
22:25 61.0 °F 54.1 °F 29.81 in Calm     78 % 0.00 in
22:30 61.0 °F 54.5 °F 29.81 in Calm     79 % 0.00 in
22:35 60.6 °F 53.8 °F 29.82 in Calm     78 % 0.00 in
22:40 60.4 °F 54.0 °F 29.82 in Calm     79 % 0.00 in
22:45 60.3 °F 54.1 °F 29.82 in Calm     80 % 0.00 in
22:50 60.3 °F 54.1 °F 29.81 in Calm   1.0 mph 80 % 0.00 in
22:55 60.4 °F 53.6 °F 29.82 in SSE 1.0 mph 2.0 mph 78 % 0.00 in
23:00 61.2 °F 53.6 °F 29.82 in SSW 2.0 mph 3.0 mph 76 % 0.00 in
23:05 61.9 °F 53.8 °F 29.82 in South 1.0 mph 3.0 mph 75 % 0.00 in
23:10 62.2 °F 53.4 °F 29.81 in Calm   3.0 mph 73 % 0.00 in
23:15 62.8 °F 53.6 °F 29.81 in South 1.0 mph 3.0 mph 72 % 0.00 in
23:20 63.1 °F 54.0 °F 29.81 in Calm   3.0 mph 72 % 0.00 in
23:25 63.1 °F 54.0 °F 29.81 in Calm   2.0 mph 72 % 0.00 in
23:30 63.1 °F 54.0 °F 29.81 in Calm   2.0 mph 72 % 0.00 in
23:35 63.0 °F 53.8 °F 29.81 in Calm   1.0 mph 72 % 0.00 in
23:40 62.6 °F 53.8 °F 29.81 in Calm   1.0 mph 73 % 0.00 in
23:45 62.2 °F 53.4 °F 29.81 in Calm   1.0 mph 73 % 0.00 in
23:50 62.1 °F 53.2 °F 29.81 in Calm   1.0 mph 73 % 0.00 in
23:55 62.1 °F 53.2 °F 29.81 in Calm   1.0 mph 73 % 0.00 in
Spring, Texas: Villages of Bridgestone
Compliments of Weather Underground - 3 mb

Script developed by  Jim McMurry - jmcmurry@mwt.net Adapted for the template by  Wim van der Kuil - Leuven-Template.eu

You find our weather info also at:

UK Metoffice

WeatherCloud

Weather Underground

Mid-South Weather Network

AWEKAS

Citizen Weather Observer Program (CWOP)

HAMweather, WeatherForYou, PWS Weather

Equipment we use:

Weather-station
Davis Vantage Vue

Weather-program
Meteohub

Weather-server
Debian 7.9 x86 (Guest)

Provider
DreamHost

Davis Vantage Vue

Meteohub

Debian 7.9 x86 (Guest)

DreamHost